createdAt,value
2022-11-07T00:00:30.990Z,6.63
2022-11-07T00:02:58.380Z,6.57
2022-11-07T00:05:25.406Z,6.80
2022-11-07T00:07:59.281Z,6.70
2022-11-07T00:10:26.351Z,7.15
2022-11-07T00:13:00.008Z,6.68
2022-11-07T00:15:27.033Z,8.23
2022-11-07T00:18:01.056Z,7.60
2022-11-07T00:20:28.043Z,7.85
2022-11-07T00:23:01.023Z,7.65
2022-11-07T00:25:28.082Z,8.85
2022-11-07T00:28:02.040Z,7.80
2022-11-07T00:30:36.444Z,7.60
2022-11-07T00:33:04.133Z,7.45
2022-11-07T00:35:38.003Z,8.00
2022-11-07T00:38:05.011Z,7.93
2022-11-07T00:40:38.989Z,7.05
2022-11-07T00:43:05.996Z,6.75
2022-11-07T00:45:40.112Z,6.82
2022-11-07T00:48:07.237Z,6.40
2022-11-07T00:50:41.049Z,6.47
2022-11-07T00:53:08.031Z,6.55
2022-11-07T00:55:41.997Z,6.90
2022-11-07T00:58:13.596Z,6.70
2022-11-07T01:00:48.084Z,6.90
2022-11-07T01:03:15.174Z,7.38
2022-11-07T01:05:49.007Z,6.40
2022-11-07T01:08:23.040Z,6.90
2022-11-07T01:10:49.983Z,6.40
2022-11-07T01:13:23.012Z,6.63
2022-11-07T01:15:56.978Z,6.30
2022-11-07T01:18:30.075Z,6.32
2022-11-07T01:20:57.133Z,6.85
2022-11-07T01:23:31.012Z,6.93
2022-11-07T01:25:57.996Z,6.03
2022-11-07T01:28:31.038Z,6.03
2022-11-07T01:30:58.034Z,5.60
2022-11-07T01:33:31.063Z,6.10
2022-11-07T01:36:06.093Z,6.00
2022-11-07T01:38:40.086Z,5.45
2022-11-07T01:41:08.921Z,5.63
2022-11-07T01:44:07.031Z,5.95
2022-11-07T01:46:33.979Z,6.35
2022-11-07T01:49:24.059Z,5.15
2022-11-07T01:52:07.823Z,5.30
2022-11-07T01:54:45.040Z,5.65
2022-11-07T01:57:17.974Z,5.13
2022-11-07T01:59:51.051Z,5.32
2022-11-07T02:02:18.255Z,4.85
2022-11-07T02:04:52.024Z,5.25
2022-11-07T02:07:23.671Z,5.43
2022-11-07T02:09:58.079Z,5.60
2022-11-07T02:12:34.044Z,4.90
2022-11-07T02:15:01.030Z,4.95
2022-11-07T02:17:27.982Z,4.93
2022-11-07T02:20:02.008Z,4.50
2022-11-07T02:22:59.017Z,4.80
2022-11-07T02:25:26.025Z,5.07
2022-11-07T02:28:03.058Z,4.30
2022-11-07T02:30:31.735Z,4.45
2022-11-07T02:33:05.050Z,4.43
2022-11-07T02:35:43.626Z,4.60
2022-11-07T02:38:39.075Z,4.70
2022-11-07T02:41:28.047Z,4.47
2022-11-07T02:44:08.846Z,4.72
2022-11-07T02:46:42.071Z,4.53
2022-11-07T02:49:09.072Z,5.50
2022-11-07T02:51:36.040Z,4.30
2022-11-07T02:54:10.080Z,4.32
2022-11-07T02:56:37.139Z,3.92
2022-11-07T02:59:11.118Z,4.65
2022-11-07T03:01:38.167Z,3.83
2022-11-07T03:04:12.086Z,3.72
2022-11-07T03:06:39.095Z,3.50
2022-11-07T03:09:13.063Z,3.53
2022-11-07T03:11:40.049Z,3.33
2022-11-07T03:14:13.063Z,2.95
2022-11-07T03:16:40.003Z,3.90
2022-11-07T03:19:07.052Z,3.90
2022-11-07T03:21:40.083Z,3.35
2022-11-07T03:24:07.245Z,3.85
2022-11-07T03:26:41.055Z,2.97
2022-11-07T03:29:14.141Z,3.30
2022-11-07T03:31:41.130Z,3.65
2022-11-07T03:34:15.106Z,2.85
2022-11-07T03:36:42.048Z,3.08
2022-11-07T03:39:16.122Z,2.92
2022-11-07T03:41:43.185Z,2.88
2022-11-07T03:44:17.112Z,3.05
2022-11-07T03:46:44.005Z,2.72
2022-11-07T03:49:11.033Z,3.40
2022-11-07T03:51:44.096Z,2.92
2022-11-07T03:54:11.013Z,3.13
2022-11-07T03:56:37.965Z,2.42
2022-11-07T03:59:11.081Z,3.42
2022-11-07T04:01:44.219Z,2.92
2022-11-07T04:04:18.118Z,3.13
2022-11-07T04:06:51.098Z,2.67
2022-11-07T04:09:18.059Z,2.75
2022-11-07T04:11:51.146Z,3.25
2022-11-07T04:14:25.097Z,2.75
2022-11-07T04:16:52.061Z,3.45
2022-11-07T04:19:25.099Z,3.83
2022-11-07T04:21:52.044Z,2.97
2022-11-07T04:24:25.153Z,2.70
2022-11-07T04:26:52.073Z,2.70
2022-11-07T04:29:25.171Z,2.60
2022-11-07T04:31:52.158Z,2.72
2022-11-07T04:34:26.103Z,2.83
2022-11-07T04:36:53.160Z,2.17
2022-11-07T04:39:27.173Z,2.30
2022-11-07T04:41:54.333Z,2.67
2022-11-07T04:44:28.179Z,2.40
2022-11-07T04:46:55.144Z,2.33
2022-11-07T04:49:28.131Z,3.13
2022-11-07T04:51:58.154Z,2.55
2022-11-07T04:54:31.154Z,2.40
2022-11-07T04:56:58.105Z,2.70
2022-11-07T04:59:31.151Z,2.25
2022-11-07T05:01:58.243Z,2.13
2022-11-07T05:04:32.100Z,2.30
2022-11-07T05:06:59.080Z,2.58
2022-11-07T05:09:32.170Z,2.47
2022-11-07T05:12:06.143Z,2.72
2022-11-07T05:14:33.162Z,2.25
2022-11-07T05:17:06.120Z,2.72
2022-11-07T05:19:39.914Z,2.53
2022-11-07T05:22:13.162Z,2.55
2022-11-07T05:24:40.181Z,2.90
2022-11-07T05:27:14.175Z,2.72
2022-11-07T05:29:41.187Z,3.08
2022-11-07T05:32:14.115Z,2.35
2022-11-07T05:34:41.090Z,2.60
2022-11-07T05:37:18.123Z,2.50
2022-11-07T05:39:54.818Z,2.42
2022-11-07T05:42:22.245Z,2.20
2022-11-07T05:44:56.135Z,2.30
2022-11-07T05:47:23.061Z,2.15
2022-11-07T05:49:56.157Z,2.58
2022-11-07T05:52:23.187Z,2.13
2022-11-07T05:54:56.104Z,2.40
2022-11-07T05:57:23.045Z,2.20
2022-11-07T05:59:56.156Z,2.20
2022-11-07T06:02:23.144Z,2.20
2022-11-07T06:04:56.106Z,2.58
2022-11-07T06:07:30.125Z,2.47
2022-11-07T06:10:03.182Z,2.55
2022-11-07T06:12:30.175Z,2.22
2022-11-07T06:15:03.144Z,2.55
2022-11-07T06:17:36.157Z,2.17
2022-11-07T06:20:03.466Z,2.33
2022-11-07T06:22:37.182Z,6.00
2022-11-07T06:25:11.209Z,4.57
2022-11-07T06:27:38.208Z,4.57
2022-11-07T06:30:13.170Z,4.20
2022-11-07T06:32:46.185Z,3.53
2022-11-07T06:35:13.373Z,3.15
2022-11-07T06:37:40.277Z,3.47
2022-11-07T06:40:14.216Z,3.22
2022-11-07T06:42:41.176Z,2.20
2022-11-07T06:45:15.215Z,2.65
2022-11-07T06:47:42.268Z,2.75
2022-11-07T06:50:16.173Z,2.42
2022-11-07T06:52:43.162Z,2.15
2022-11-07T06:55:16.155Z,2.47
2022-11-07T06:57:50.208Z,2.47
2022-11-07T07:00:24.160Z,1.98
2022-11-07T07:02:58.458Z,2.17
2022-11-07T07:05:33.155Z,13.15
2022-11-07T07:08:00.098Z,14.65
2022-11-07T07:10:33.179Z,11.30
2022-11-07T07:13:00.768Z,7.15
2022-11-07T07:15:47.835Z,6.80
2022-11-07T07:18:24.207Z,10.35
2022-11-07T07:20:58.188Z,7.95
2022-11-07T07:23:25.124Z,4.80
2022-11-07T07:25:58.196Z,3.80
2022-11-07T07:28:31.181Z,3.17
2022-11-07T07:31:20.189Z,6.40
2022-11-07T07:33:54.198Z,4.97
2022-11-07T07:36:21.297Z,2.67
2022-11-07T07:38:56.212Z,3.65
2022-11-07T07:41:23.107Z,3.33
2022-11-07T07:43:56.218Z,3.58
2022-11-07T07:46:23.687Z,3.22
2022-11-07T07:48:57.543Z,3.13
2022-11-07T07:51:24.537Z,3.00
2022-11-07T07:53:51.458Z,2.35
2022-11-07T07:56:25.184Z,2.78
2022-11-07T07:58:58.203Z,2.83
2022-11-07T08:01:25.224Z,2.58
2022-11-07T08:04:01.749Z,2.40
2022-11-07T08:06:36.169Z,2.80
2022-11-07T08:09:10.202Z,2.80
2022-11-07T08:11:48.471Z,2.78
2022-11-07T08:14:24.326Z,2.85
2022-11-07T08:16:58.208Z,3.25
2022-11-07T08:19:25.076Z,3.05
2022-11-07T08:21:52.015Z,3.00
2022-11-07T08:24:26.227Z,2.97
2022-11-07T08:26:53.194Z,2.92
2022-11-07T08:29:26.219Z,3.40
2022-11-07T08:31:53.203Z,3.00
2022-11-07T08:34:26.244Z,2.72
2022-11-07T08:36:53.413Z,3.00
2022-11-07T08:39:27.302Z,2.90
2022-11-07T08:41:54.363Z,3.30
2022-11-07T08:44:21.894Z,3.20
2022-11-07T08:46:55.210Z,2.75
2022-11-07T08:49:22.132Z,3.00
2022-11-07T08:51:55.220Z,3.75
2022-11-07T08:54:22.227Z,3.20
2022-11-07T08:56:56.269Z,3.33
2022-11-07T08:59:29.275Z,3.15
2022-11-07T09:02:36.913Z,3.47
2022-11-07T09:04:50.357Z,2.88
2022-11-07T09:07:24.265Z,2.90
2022-11-07T09:09:58.327Z,3.22
2022-11-07T09:12:25.366Z,3.30
2022-11-07T09:14:59.321Z,2.92
2022-11-07T09:17:26.406Z,3.67
2022-11-07T09:20:00.316Z,3.40
2022-11-07T09:22:27.291Z,3.08
2022-11-07T09:25:00.337Z,2.72
2022-11-07T09:27:27.316Z,2.88
2022-11-07T09:30:01.349Z,3.20
2022-11-07T09:32:50.056Z,3.13
2022-11-07T09:35:17.235Z,3.50
2022-11-07T09:37:50.264Z,3.88
2022-11-07T09:41:12.312Z,4.03
2022-11-07T09:43:58.333Z,2.60
2022-11-07T09:47:02.278Z,2.40
2022-11-07T09:49:51.232Z,2.50
2022-11-07T09:53:01.330Z,2.42
2022-11-07T09:55:38.426Z,2.55
2022-11-07T09:58:54.249Z,2.50
2022-11-07T10:01:21.610Z,2.63
2022-11-07T10:04:26.489Z,2.70
2022-11-07T10:07:11.216Z,3.30
2022-11-07T10:10:22.354Z,2.58
2022-11-07T10:13:10.011Z,2.58
2022-11-07T10:16:14.374Z,3.15
2022-11-07T10:18:56.906Z,2.80
2022-11-07T10:22:13.277Z,2.67
2022-11-07T10:24:43.033Z,3.58
2022-11-07T10:27:18.328Z,2.92
2022-11-07T10:29:51.140Z,3.30
2022-11-07T10:32:49.328Z,3.47
2022-11-07T10:35:33.041Z,3.20
2022-11-07T10:38:09.383Z,3.20
2022-11-07T10:40:39.873Z,2.92
2022-11-07T10:43:25.291Z,3.30
2022-11-07T10:45:52.599Z,3.03
2022-11-07T10:48:26.300Z,2.67
2022-11-07T10:51:00.291Z,3.13
2022-11-07T10:53:27.380Z,2.90
2022-11-07T10:56:01.301Z,3.17
2022-11-07T10:58:36.571Z,3.80
2022-11-07T11:01:13.415Z,3.25
2022-11-07T11:03:52.357Z,3.60
2022-11-07T11:06:19.262Z,4.57
2022-11-07T11:08:54.326Z,4.78
2022-11-07T11:11:33.253Z,4.40
2022-11-07T11:14:20.297Z,4.30
2022-11-07T11:16:52.865Z,5.13
2022-11-07T11:19:40.280Z,5.60
2022-11-07T11:22:15.306Z,4.78
2022-11-07T11:24:48.384Z,4.85
2022-11-07T11:27:22.032Z,5.22
2022-11-07T11:30:01.314Z,5.00
2022-11-07T11:32:52.301Z,5.07
2022-11-07T11:35:40.400Z,5.25
2022-11-07T11:38:30.722Z,5.70
2022-11-07T11:41:10.999Z,5.18
2022-11-07T11:44:23.337Z,6.18
2022-11-07T11:46:58.322Z,5.70
2022-11-07T11:49:35.468Z,5.43
2022-11-07T11:52:17.933Z,5.78
2022-11-07T11:54:52.307Z,6.10
2022-11-07T11:57:36.381Z,5.75
2022-11-07T12:00:13.360Z,5.30
2022-11-07T12:03:27.426Z,7.30
2022-11-07T12:06:20.850Z,5.93
2022-11-07T12:09:17.331Z,5.88
2022-11-07T12:12:00.698Z,5.35
2022-11-07T12:14:58.004Z,5.63
2022-11-07T12:18:18.816Z,6.05
2022-11-07T12:21:43.483Z,5.72
2022-11-07T12:24:27.091Z,6.40
2022-11-07T12:27:09.399Z,6.18
2022-11-07T12:30:12.453Z,5.57
2022-11-07T12:33:02.801Z,7.30
2022-11-07T12:35:41.406Z,6.47
2022-11-07T12:38:58.357Z,5.88
2022-11-07T12:41:58.454Z,5.22
2022-11-07T12:44:45.898Z,5.97
2022-11-07T12:47:26.388Z,5.75
2022-11-07T12:50:21.371Z,4.75
2022-11-07T12:53:17.645Z,5.22
2022-11-07T12:56:02.447Z,5.78
2022-11-07T12:58:40.418Z,6.10
2022-11-07T13:01:14.400Z,5.30
2022-11-07T13:04:34.413Z,5.00
2022-11-07T13:07:28.511Z,6.05
2022-11-07T13:10:15.413Z,5.25
2022-11-07T13:12:58.445Z,5.50
2022-11-07T13:15:53.752Z,5.65
2022-11-07T13:18:31.527Z,7.10
2022-11-07T13:21:10.483Z,6.25
2022-11-07T13:23:44.472Z,6.55
2022-11-07T13:26:40.229Z,5.80
2022-11-07T13:29:07.471Z,6.53
2022-11-07T13:31:39.566Z,7.20
2022-11-07T13:34:26.442Z,7.10
2022-11-07T13:37:05.397Z,6.28
2022-11-07T13:39:38.471Z,6.75
2022-11-07T13:42:05.728Z,6.20
2022-11-07T13:44:45.664Z,6.47
2022-11-07T13:47:17.065Z,7.25
2022-11-07T13:49:45.288Z,6.43
2022-11-07T13:52:30.517Z,6.03
2022-11-07T13:55:05.849Z,4.65
2022-11-07T13:57:46.426Z,4.90
2022-11-07T14:00:17.843Z,6.28
2022-11-07T14:03:02.532Z,5.97
2022-11-07T14:05:34.627Z,5.28
2022-11-07T14:08:25.572Z,5.60
2022-11-07T14:10:52.908Z,5.53
2022-11-07T14:13:41.181Z,5.38
2022-11-07T14:16:29.609Z,5.47
2022-11-07T14:19:11.455Z,4.88
2022-11-07T14:21:38.544Z,4.80
2022-11-07T14:24:30.419Z,5.97
2022-11-07T14:27:07.530Z,5.45
2022-11-07T14:30:03.625Z,6.30
2022-11-07T14:32:37.447Z,5.95
2022-11-07T14:35:14.428Z,6.43
2022-11-07T14:37:47.664Z,5.75
2022-11-07T14:40:14.854Z,5.40
2022-11-07T14:42:49.448Z,5.47
2022-11-07T14:45:39.134Z,5.30
2022-11-07T14:48:13.663Z,5.00
2022-11-07T14:50:40.772Z,5.32
2022-11-07T14:53:31.471Z,5.63
2022-11-07T14:56:02.752Z,5.35
2022-11-07T14:58:36.506Z,4.85
2022-11-07T15:01:13.680Z,4.63
2022-11-07T15:04:16.656Z,5.22
2022-11-07T15:06:51.461Z,6.00
2022-11-07T15:09:18.463Z,5.38
2022-11-07T15:12:04.812Z,6.72
2022-11-07T15:14:41.481Z,6.68
2022-11-07T15:17:21.786Z,5.75
2022-11-07T15:20:06.494Z,6.70
2022-11-07T15:22:38.265Z,6.82
2022-11-07T15:25:42.486Z,5.63
2022-11-07T15:28:25.485Z,6.75
2022-11-07T15:31:28.119Z,6.18
2022-11-07T15:34:08.661Z,6.07
2022-11-07T15:36:42.781Z,5.95
2022-11-07T15:39:10.391Z,6.15
2022-11-07T15:41:44.656Z,6.35
2022-11-07T15:44:12.418Z,7.90
2022-11-07T15:46:46.085Z,8.52
2022-11-07T15:49:13.713Z,16.92
2022-11-07T15:51:47.499Z,16.50
2022-11-07T15:54:19.048Z,16.95
2022-11-07T15:56:58.221Z,17.45
2022-11-07T15:59:25.764Z,15.00
2022-11-07T16:01:59.570Z,15.57
2022-11-07T16:04:26.649Z,20.40
2022-11-07T16:07:00.473Z,15.60
2022-11-07T16:09:34.536Z,9.77
2022-11-07T16:12:01.539Z,8.90
2022-11-07T16:14:44.143Z,12.23
2022-11-07T16:17:18.785Z,20.27
2022-11-07T16:19:57.397Z,20.33
2022-11-07T16:22:33.527Z,18.02
2022-11-07T16:25:14.895Z,18.05
2022-11-07T16:27:55.197Z,18.65
2022-11-07T16:30:29.518Z,22.10
2022-11-07T16:32:56.640Z,23.20
2022-11-07T16:35:30.961Z,20.80
2022-11-07T16:37:59.328Z,13.73
2022-11-07T16:40:32.531Z,14.57
2022-11-07T16:42:59.574Z,13.85
2022-11-07T16:45:32.586Z,12.70
2022-11-07T16:47:59.822Z,11.57
2022-11-07T16:50:33.574Z,10.23
2022-11-07T16:53:00.664Z,12.95
2022-11-07T16:55:34.494Z,13.18
2022-11-07T16:58:01.495Z,12.70
2022-11-07T17:00:34.542Z,9.02
2022-11-07T17:03:01.647Z,8.70
2022-11-07T17:05:35.582Z,6.93
2022-11-07T17:08:02.707Z,6.57
2022-11-07T17:10:43.546Z,6.30
2022-11-07T17:13:10.670Z,5.47
2022-11-07T17:15:44.589Z,5.65
2022-11-07T17:18:18.847Z,5.43
2022-11-07T17:20:59.619Z,5.90
2022-11-07T17:23:33.554Z,5.72
2022-11-07T17:26:07.626Z,5.47
2022-11-07T17:28:34.792Z,4.53
2022-11-07T17:31:08.542Z,4.57
2022-11-07T17:33:35.532Z,5.55
2022-11-07T17:36:08.564Z,4.68
2022-11-07T17:38:35.525Z,4.82
2022-11-07T17:41:02.626Z,10.35
2022-11-07T17:43:36.626Z,7.63
2022-11-07T17:46:03.848Z,10.40
2022-11-07T17:48:37.583Z,9.13
2022-11-07T17:51:11.612Z,7.40
2022-11-07T17:53:38.610Z,6.82
2022-11-07T17:56:13.578Z,7.20
2022-11-07T17:58:40.574Z,7.28
2022-11-07T18:01:27.670Z,6.75
2022-11-07T18:03:54.900Z,7.93
2022-11-07T18:06:22.767Z,10.00
2022-11-07T18:08:58.012Z,9.55
2022-11-07T18:11:27.571Z,8.38
2022-11-07T18:14:01.583Z,8.57
2022-11-07T18:16:35.248Z,7.95
2022-11-07T18:19:08.602Z,7.55
2022-11-07T18:21:35.645Z,7.85
2022-11-07T18:24:09.624Z,7.38
2022-11-07T18:26:36.645Z,8.00
2022-11-07T18:29:12.558Z,8.40
2022-11-07T18:31:39.974Z,8.10
2022-11-07T18:34:16.605Z,8.02
2022-11-07T18:36:44.732Z,8.02
2022-11-07T18:39:24.573Z,7.63
2022-11-07T18:41:54.192Z,8.43
2022-11-07T18:44:21.188Z,8.23
2022-11-07T18:46:54.613Z,8.95
2022-11-07T18:49:21.591Z,10.13
2022-11-07T18:51:55.653Z,9.77
2022-11-07T18:54:22.683Z,9.07
2022-11-07T18:56:49.796Z,8.77
2022-11-07T18:59:23.629Z,10.32
2022-11-07T19:01:50.788Z,9.65
2022-11-07T19:04:24.601Z,10.45
2022-11-07T19:06:51.547Z,9.88
2022-11-07T19:09:24.598Z,9.32
2022-11-07T19:11:58.595Z,8.27
2022-11-07T19:14:26.806Z,9.13
2022-11-07T19:17:00.597Z,8.45
2022-11-07T19:19:34.642Z,8.43
2022-11-07T19:22:01.666Z,9.40
2022-11-07T19:24:28.784Z,9.20
2022-11-07T19:27:02.661Z,10.18
2022-11-07T19:29:29.676Z,11.38
2022-11-07T19:32:03.656Z,11.18
2022-11-07T19:34:31.138Z,11.98
2022-11-07T19:37:06.849Z,10.82
2022-11-07T19:39:37.059Z,9.98
2022-11-07T19:42:11.633Z,10.43
2022-11-07T19:44:41.816Z,10.70
2022-11-07T19:47:17.639Z,10.73
2022-11-07T19:49:44.557Z,10.82
2022-11-07T19:52:17.610Z,11.73
2022-11-07T19:54:44.702Z,11.95
2022-11-07T19:57:18.669Z,11.50
2022-11-07T19:59:52.653Z,13.63
2022-11-07T20:02:33.143Z,12.75
2022-11-07T20:05:01.828Z,13.20
2022-11-07T20:07:35.681Z,12.40
2022-11-07T20:10:02.698Z,11.05
2022-11-07T20:12:36.664Z,10.50
2022-11-07T20:15:10.626Z,9.70
2022-11-07T20:17:43.683Z,11.05
2022-11-07T20:20:17.668Z,11.80
2022-11-07T20:22:46.593Z,12.75
2022-11-07T20:25:20.621Z,11.98
2022-11-07T20:27:47.738Z,11.30
2022-11-07T20:30:21.645Z,12.30
2022-11-07T20:32:55.796Z,10.77
2022-11-07T20:35:22.828Z,9.93
2022-11-07T20:37:56.767Z,10.02
2022-11-07T20:40:30.660Z,9.95
2022-11-07T20:43:04.711Z,11.02
2022-11-07T20:45:31.784Z,10.88
2022-11-07T20:47:58.805Z,11.65
2022-11-07T20:50:32.757Z,11.68
2022-11-07T20:53:00.332Z,11.30
2022-11-07T20:55:33.740Z,12.68
2022-11-07T20:58:00.729Z,12.68
2022-11-07T21:00:34.881Z,12.60
2022-11-07T21:03:01.987Z,12.13
2022-11-07T21:05:35.889Z,12.48
2022-11-07T21:08:02.921Z,11.57
2022-11-07T21:10:36.827Z,15.85
2022-11-07T21:13:04.202Z,16.38
2022-11-07T21:15:37.838Z,13.43
2022-11-07T21:18:05.027Z,11.25
2022-11-07T21:20:38.779Z,10.82
2022-11-07T21:23:06.112Z,10.40
2022-11-07T21:25:49.662Z,10.55
2022-11-07T21:28:18.234Z,9.95
2022-11-07T21:31:03.659Z,10.68
2022-11-07T21:33:30.773Z,11.43
2022-11-07T21:36:04.697Z,11.15
2022-11-07T21:38:37.692Z,11.32
2022-11-07T21:41:08.627Z,11.45
2022-11-07T21:43:42.703Z,11.25
2022-11-07T21:46:27.507Z,10.15
2022-11-07T21:49:04.722Z,10.10
2022-11-07T21:51:32.669Z,9.77
2022-11-07T21:54:06.751Z,8.43
2022-11-07T21:56:42.737Z,7.97
2022-11-07T21:59:11.024Z,9.00
2022-11-07T22:01:46.090Z,9.45
2022-11-07T22:04:13.771Z,8.52
2022-11-07T22:06:49.715Z,9.88
2022-11-07T22:09:18.153Z,9.18
2022-11-07T22:11:51.758Z,9.15
2022-11-07T22:14:21.118Z,9.32
2022-11-07T22:16:55.730Z,9.57
2022-11-07T22:19:22.861Z,10.07
2022-11-07T22:21:56.745Z,10.55
2022-11-07T22:24:23.833Z,10.35
2022-11-07T22:26:57.749Z,11.05
2022-11-07T22:29:24.818Z,10.07
2022-11-07T22:31:58.718Z,10.82
2022-11-07T22:34:25.780Z,9.35
2022-11-07T22:36:54.527Z,10.63
2022-11-07T22:39:27.748Z,11.70
2022-11-07T22:42:01.761Z,10.70
2022-11-07T22:44:29.153Z,9.88
2022-11-07T22:46:56.196Z,10.52
2022-11-07T22:49:29.970Z,10.55
2022-11-07T22:51:56.934Z,9.80
2022-11-07T22:54:30.758Z,10.25
2022-11-07T22:56:57.885Z,10.75
2022-11-07T22:59:31.711Z,10.55
2022-11-07T23:01:58.847Z,9.85
2022-11-07T23:04:33.201Z,9.40
2022-11-07T23:07:00.266Z,10.85
2022-11-07T23:09:33.781Z,10.32
2022-11-07T23:12:00.745Z,10.25
2022-11-07T23:14:40.793Z,9.18
2022-11-07T23:17:08.665Z,9.52
2022-11-07T23:19:41.717Z,10.60
2022-11-07T23:22:08.729Z,9.45
2022-11-07T23:24:35.689Z,9.30
2022-11-07T23:27:08.726Z,9.93
2022-11-07T23:29:42.684Z,9.98
2022-11-07T23:32:12.301Z,10.05
2022-11-07T23:34:45.714Z,9.65
2022-11-07T23:37:12.698Z,9.95
2022-11-07T23:39:47.707Z,9.82
2022-11-07T23:42:21.742Z,9.18
2022-11-07T23:44:48.686Z,9.73
2022-11-07T23:47:21.734Z,9.10
2022-11-07T23:49:48.642Z,10.18
2022-11-07T23:52:22.678Z,10.23
2022-11-07T23:54:49.675Z,9.93
2022-11-07T23:57:22.836Z,10.07
2022-11-07T23:59:49.737Z,10.10
